Eldon, IA (52554)

7:23 PM CST on December 05, 2016 (GMT -0600)
East | | Change Station

Elev 833 ft 41.03 °N, 92.40 °W | Updated 2 minutes ago

Overcast
Overcast
35.2 °F
Feels Like 35 °F
N
3.0
Wind Variable Wind from SE
Gusts 3.0 mph

Today
High -- | Low -- °F
--% Chance of Precip.
Yesterday
High -- | Low -- °F
Precip. -- in
Pressure 29.83 in
Visibility 6.0 miles
Clouds Overcast 700 ft
Windchill 35 °F
Dew Point 32 °F
Humidity 88%
Rainfall 0.36 in
Snow Depth Not available.
7:18 AM 4:40 PM
Waxing Crescent, 36% visible
METAR KFFL 060115Z AUTO 14013KT 6SM BR OVC007 03/01 A2983 RMK AO2 PWINO
Pressure 29.83 in
Visibility 6.0 miles
Clouds Overcast 700 ft
Windchill 35 °F
Dew Point 32 °F
Humidity 88%
Rainfall 0.36 in
Snow Depth Not available.
7:18 AM 4:40 PM
Waxing Crescent, 36% visible
METAR KFFL 060115Z AUTO 14013KT 6SM BR OVC007 03/01 A2983 RMK AO2 PWINO

10-Day Weather Forecast

Almanac

Astronomy

Dec. 05, 2016 Rise Set
Actual Time
Civil Twilight
Nautical Twilight
Astronomical Twilight
Moon
Length of Visible Light
Length of Day
Tomorrow will be .
, % of the Moon is Illuminated

Today's Extremes

State Highs State Lows

Community

WunderPhotos

Upload Photos

1,955,893 photos uploaded!

WunderBlog® & News

Nearby

Air Quality

  Air Quality AQ Index Pollutant
Not available.

Snow Depth

Station Depth Elevation

Earthquake Activity

City Distance Mag. Time & Date
Minimum magnitude displayed is 2.5.

Coastal Water Temperatures

Place Temperature

Stations

Nearby Weather Stations

Station Location Temp. Windchill Dew Point Humidity Wind Precip. Elev Updated Type
                   

Watches & Warnings

There are currently no watches in effect.